createdAt,value
2022-10-17T00:01:41.115Z,100893.60
2022-10-17T00:04:10.017Z,100903.40
2022-10-17T00:06:38.893Z,100900.40
2022-10-17T00:09:07.754Z,100902.00
2022-10-17T00:11:37.191Z,100910.40
2022-10-17T00:14:06.076Z,100901.20
2022-10-17T00:16:38.052Z,100912.00
2022-10-17T00:19:08.202Z,100913.40
2022-10-17T00:21:37.112Z,100913.60
2022-10-17T00:24:17.070Z,100917.60
2022-10-17T00:26:50.615Z,100916.20
2022-10-17T00:29:23.776Z,100918.40
2022-10-17T00:31:58.373Z,100923.80
2022-10-17T00:34:31.575Z,100930.60
2022-10-17T00:37:00.322Z,100925.60
2022-10-17T00:39:29.936Z,100928.40
2022-10-17T00:41:58.614Z,100929.20
2022-10-17T00:44:30.454Z,100932.80
2022-10-17T00:47:06.756Z,100933.40
2022-10-17T00:49:39.233Z,100938.20
2022-10-17T00:52:31.142Z,100931.80
2022-10-17T00:55:29.861Z,100929.60
2022-10-17T00:58:04.013Z,100930.00
2022-10-17T01:00:33.005Z,100926.80
2022-10-17T01:03:01.672Z,100924.80
2022-10-17T01:05:31.335Z,100932.40
2022-10-17T01:08:01.233Z,100930.40
2022-10-17T01:11:04.535Z,100925.40
2022-10-17T01:14:17.620Z,100927.80
2022-10-17T01:16:59.894Z,100927.20
2022-10-17T01:19:50.153Z,100923.20
2022-10-17T01:22:30.817Z,100924.60
2022-10-17T01:25:39.634Z,100928.60
2022-10-17T01:29:07.893Z,100930.80
2022-10-17T01:32:07.652Z,100928.20
2022-10-17T01:34:49.153Z,100927.60
2022-10-17T01:37:40.383Z,100929.60
2022-10-17T01:41:01.823Z,100923.80
2022-10-17T01:43:42.192Z,100915.20
2022-10-17T01:46:31.573Z,100908.60
2022-10-17T01:49:03.753Z,100905.40
2022-10-17T01:51:54.981Z,100906.60
2022-10-17T01:54:45.212Z,100908.60
2022-10-17T01:57:40.294Z,100910.00
2022-10-17T02:00:24.661Z,100905.60
2022-10-17T02:03:05.742Z,100899.80
2022-10-17T02:05:44.234Z,100906.40
2022-10-17T02:08:15.034Z,100901.00
2022-10-17T02:11:04.992Z,100906.00
2022-10-17T02:17:16.300Z,100927.60
2022-10-17T02:20:46.733Z,100928.20
2022-10-17T02:23:44.224Z,100934.80
2022-10-17T02:26:30.556Z,100936.80
2022-10-17T02:29:22.644Z,100943.40
2022-10-17T02:32:00.712Z,100939.80
2022-10-17T02:34:43.261Z,100937.00
2022-10-17T02:38:14.114Z,100931.00
2022-10-17T02:41:14.201Z,100941.60
2022-10-17T02:43:55.651Z,100942.20
2022-10-17T02:46:27.864Z,100943.40
2022-10-17T02:49:15.056Z,100951.80
2022-10-17T02:52:08.098Z,100953.20
2022-10-17T02:54:58.332Z,100955.20
2022-10-17T02:57:33.874Z,100954.00
2022-10-17T03:00:05.835Z,100949.20
2022-10-17T03:02:50.792Z,100952.40
2022-10-17T03:05:23.313Z,100951.80
2022-10-17T03:07:53.035Z,100950.60
2022-10-17T03:10:23.243Z,100956.40
2022-10-17T03:12:52.074Z,100951.60
2022-10-17T03:15:20.752Z,100943.20
2022-10-17T03:17:49.495Z,100954.00
2022-10-17T03:20:18.212Z,100957.60
2022-10-17T03:23:33.435Z,100955.20
2022-10-17T03:26:17.952Z,100957.00
2022-10-17T03:28:54.485Z,100962.60
2022-10-17T03:31:57.913Z,100959.00
2022-10-17T03:35:01.114Z,100958.00
2022-10-17T03:37:38.277Z,100962.80
2022-10-17T03:40:13.442Z,100968.40
2022-10-17T03:42:42.370Z,100968.00
2022-10-17T03:45:11.481Z,100966.60
2022-10-17T03:47:47.894Z,100972.40
2022-10-17T03:50:18.095Z,100978.00
2022-10-17T03:52:58.073Z,100984.60
2022-10-17T03:55:42.423Z,100979.00
2022-10-17T03:58:23.945Z,100978.20
2022-10-17T04:01:13.184Z,100981.40
2022-10-17T04:03:56.406Z,100982.00
2022-10-17T04:06:54.006Z,100986.00
2022-10-17T04:09:42.295Z,100981.20
2022-10-17T04:12:18.515Z,100982.20
2022-10-17T04:14:47.434Z,100984.80
2022-10-17T04:17:16.254Z,100980.60
2022-10-17T04:19:53.741Z,100974.20
2022-10-17T04:22:47.581Z,100975.80
2022-10-17T04:25:29.656Z,100981.40
2022-10-17T04:27:59.935Z,100980.80
2022-10-17T04:30:41.157Z,100978.60
2022-10-17T04:33:28.341Z,100981.80
2022-10-17T04:36:14.894Z,100981.40
2022-10-17T04:38:44.274Z,100982.00
2022-10-17T04:41:19.401Z,100988.20
2022-10-17T04:43:59.014Z,100983.80
2022-10-17T04:46:27.925Z,100985.80
2022-10-17T04:49:12.842Z,100984.80
2022-10-17T04:52:13.721Z,100990.40
2022-10-17T04:55:08.437Z,100987.00
2022-10-17T04:58:06.061Z,100986.80
2022-10-17T05:00:51.903Z,100989.80
2022-10-17T05:03:22.838Z,100982.40
2022-10-17T05:05:53.155Z,100984.20
2022-10-17T05:08:21.834Z,100991.80
2022-10-17T05:10:50.667Z,100995.00
2022-10-17T05:13:19.254Z,100990.40
2022-10-17T05:15:47.829Z,100992.20
2022-10-17T05:18:16.454Z,100995.60
2022-10-17T05:20:45.095Z,100993.40
2022-10-17T05:23:13.909Z,100997.80
2022-10-17T05:25:42.593Z,100993.60
2022-10-17T05:28:11.134Z,100997.60
2022-10-17T05:30:39.854Z,101001.60
2022-10-17T05:33:08.639Z,101010.80
2022-10-17T05:35:37.236Z,101014.00
2022-10-17T05:38:05.814Z,101018.00
2022-10-17T05:40:35.235Z,101018.00
2022-10-17T05:43:03.981Z,101025.40
2022-10-17T05:45:32.777Z,101030.60
2022-10-17T05:48:01.454Z,101029.20
2022-10-17T05:50:30.176Z,101037.00
2022-10-17T05:52:59.094Z,101041.00
2022-10-17T05:55:28.215Z,101047.00
2022-10-17T05:57:56.944Z,101040.80
2022-10-17T06:00:25.557Z,101044.20
2022-10-17T06:02:54.363Z,101041.60
2022-10-17T06:05:22.973Z,101037.00
2022-10-17T06:07:54.326Z,101036.00
2022-10-17T06:10:24.734Z,101040.00
2022-10-17T06:12:53.334Z,101048.40
2022-10-17T06:15:21.896Z,101044.60
2022-10-17T06:17:50.594Z,101050.40
2022-10-17T06:20:19.541Z,101048.20
2022-10-17T06:22:48.474Z,101042.00
2022-10-17T06:25:17.185Z,101043.80
2022-10-17T06:27:45.739Z,101048.20
2022-10-17T06:30:14.596Z,101049.00
2022-10-17T06:32:43.055Z,101051.60
2022-10-17T06:35:11.722Z,101053.80
2022-10-17T06:37:40.738Z,101056.80
2022-10-17T06:40:12.493Z,101059.60
2022-10-17T06:42:41.937Z,101056.20
2022-10-17T06:45:11.421Z,101066.40
2022-10-17T06:47:40.243Z,101067.20
2022-10-17T06:50:09.376Z,101066.60
2022-10-17T06:52:37.903Z,101068.80
2022-10-17T06:55:07.425Z,101072.20
2022-10-17T06:57:36.534Z,101067.20
2022-10-17T07:00:06.735Z,101066.00
2022-10-17T07:02:35.374Z,101067.40
2022-10-17T07:05:04.101Z,101071.60
2022-10-17T07:07:33.034Z,101076.00
2022-10-17T07:10:01.816Z,101081.20
2022-10-17T07:18:23.614Z,101092.80
2022-10-17T07:20:56.265Z,101094.80
2022-10-17T07:23:24.875Z,101094.80
2022-10-17T07:25:53.775Z,101091.60
2022-10-17T07:28:22.317Z,101101.40
2022-10-17T07:30:53.717Z,101107.60
2022-10-17T07:33:23.305Z,101107.80
2022-10-17T07:35:53.272Z,101108.60
2022-10-17T07:38:21.924Z,101107.00
2022-10-17T07:41:02.027Z,101102.60
2022-10-17T07:43:31.624Z,101107.60
2022-10-17T07:46:02.686Z,101104.80
2022-10-17T07:48:32.145Z,101106.80
2022-10-17T07:51:07.135Z,101105.60
2022-10-17T07:53:39.222Z,101103.00
2022-10-17T07:56:09.881Z,101097.80
2022-10-17T07:58:39.637Z,101094.80
2022-10-17T08:01:15.812Z,101090.00
2022-10-17T08:03:48.899Z,101093.40
2022-10-17T08:06:18.217Z,101093.20
2022-10-17T08:08:46.707Z,101094.80
2022-10-17T08:11:16.621Z,101088.20
2022-10-17T08:13:45.213Z,101091.40
2022-10-17T08:16:14.358Z,101093.00
2022-10-17T08:18:44.539Z,101093.60
2022-10-17T08:21:13.883Z,101097.40
2022-10-17T08:23:42.719Z,101099.00
2022-10-17T08:26:20.312Z,101098.40
2022-10-17T08:28:49.999Z,101097.40
2022-10-17T08:31:21.265Z,101094.00
2022-10-17T08:33:51.286Z,101096.40
2022-10-17T08:36:21.605Z,101100.40
2022-10-17T08:38:52.760Z,101102.80
2022-10-17T08:41:34.042Z,101099.60
2022-10-17T08:44:40.818Z,101099.60
2022-10-17T08:47:23.533Z,101096.60
2022-10-17T08:49:57.866Z,101100.00
2022-10-17T08:52:47.641Z,101095.40
2022-10-17T08:55:30.237Z,101095.00
2022-10-17T08:57:59.044Z,101092.40
2022-10-17T09:00:31.526Z,101092.00
2022-10-17T09:03:15.487Z,101089.20
2022-10-17T09:06:30.337Z,101091.80
2022-10-17T09:09:36.080Z,101089.20
2022-10-17T09:12:58.623Z,101089.80
2022-10-17T09:16:18.404Z,101090.20
2022-10-17T09:19:27.239Z,101087.20
2022-10-17T09:22:04.732Z,101085.60
2022-10-17T09:24:44.712Z,101083.40
2022-10-17T09:27:41.727Z,101081.40
2022-10-17T09:30:46.372Z,101080.00
2022-10-17T09:33:35.632Z,101081.00
2022-10-17T09:36:14.555Z,101080.40
2022-10-17T09:38:58.327Z,101077.00
2022-10-17T09:41:46.895Z,101073.20
2022-10-17T09:44:48.409Z,101073.20
2022-10-17T09:47:35.539Z,101070.60
2022-10-17T09:50:16.517Z,101069.40
2022-10-17T09:52:48.047Z,101071.80
2022-10-17T09:55:40.700Z,101072.40
2022-10-17T09:58:11.815Z,101072.60
2022-10-17T10:00:45.338Z,101069.40
2022-10-17T10:03:18.636Z,101072.80
2022-10-17T10:06:04.557Z,101069.00
2022-10-17T10:08:56.526Z,101068.00
2022-10-17T10:11:54.535Z,101070.20
2022-10-17T10:14:34.911Z,101070.20
2022-10-17T10:17:24.705Z,101071.20
2022-10-17T10:19:54.074Z,101069.60
2022-10-17T10:22:24.228Z,101068.20
2022-10-17T10:25:11.216Z,101069.60
2022-10-17T10:27:42.499Z,101070.00
2022-10-17T10:30:22.957Z,101068.00
2022-10-17T10:32:52.328Z,101066.80
2022-10-17T10:35:34.435Z,101065.80
2022-10-17T10:38:11.298Z,101070.80
2022-10-17T10:40:57.306Z,101064.40
2022-10-17T10:43:41.448Z,101060.60
2022-10-17T10:46:37.371Z,101058.20
2022-10-17T10:49:33.190Z,101056.40
2022-10-17T10:52:06.283Z,101056.20
2022-10-17T10:54:42.965Z,101056.00
2022-10-17T10:57:21.178Z,101057.20
2022-10-17T11:00:02.847Z,101054.80
2022-10-17T11:03:12.652Z,101052.40
2022-10-17T11:05:56.654Z,101050.40
2022-10-17T11:08:53.098Z,101053.80
2022-10-17T11:11:34.984Z,101049.40
2022-10-17T11:14:38.698Z,101043.60
2022-10-17T11:17:19.070Z,101039.00
2022-10-17T11:20:18.668Z,101039.60
2022-10-17T11:23:00.659Z,101040.00
2022-10-17T11:25:39.115Z,101039.20
2022-10-17T11:28:18.359Z,101040.40
2022-10-17T11:31:00.604Z,101033.40
2022-10-17T11:34:08.639Z,101032.80
2022-10-17T11:36:43.126Z,101025.80
2022-10-17T11:39:28.417Z,101024.20
2022-10-17T11:42:07.659Z,101020.80
2022-10-17T11:44:41.769Z,101018.00
2022-10-17T11:47:48.178Z,101013.80
2022-10-17T11:53:20.509Z,101012.40
2022-10-17T11:55:52.698Z,101013.60
2022-10-17T11:58:37.602Z,101020.60
2022-10-17T12:01:35.237Z,101021.40
2022-10-17T12:04:41.983Z,101013.20
2022-10-17T12:07:29.157Z,101007.40
2022-10-17T12:10:16.358Z,101009.00
2022-10-17T12:12:44.844Z,101007.00
2022-10-17T12:15:13.421Z,101003.80
2022-10-17T12:17:46.438Z,101007.80
2022-10-17T12:20:21.678Z,101009.40
2022-10-17T12:23:03.641Z,101014.60
2022-10-17T12:25:47.808Z,101011.40
2022-10-17T12:28:39.888Z,101013.80
2022-10-17T12:31:16.431Z,101012.40
2022-10-17T12:34:19.585Z,101006.40
2022-10-17T12:36:48.166Z,101003.20
2022-10-17T12:39:18.085Z,101006.20
2022-10-17T12:41:47.009Z,101001.00
2022-10-17T12:44:15.667Z,101000.40
2022-10-17T12:47:10.978Z,101000.20
2022-10-17T12:49:54.385Z,101000.80
2022-10-17T12:52:33.441Z,101010.20
2022-10-17T12:55:14.522Z,101006.80
2022-10-17T12:58:08.555Z,101006.20
2022-10-17T13:01:11.634Z,101002.40
2022-10-17T13:03:48.064Z,101001.40
2022-10-17T13:06:26.166Z,101001.00
2022-10-17T13:09:04.234Z,100995.40
2022-10-17T13:11:38.316Z,100999.00
2022-10-17T13:14:17.299Z,100996.80
2022-10-17T13:17:07.908Z,100992.40
2022-10-17T13:19:46.219Z,100991.20
2022-10-17T13:22:32.598Z,100991.80
2022-10-17T13:25:15.929Z,100991.80
2022-10-17T13:27:45.747Z,100987.40
2022-10-17T13:30:32.653Z,100993.00
2022-10-17T13:33:03.729Z,100992.00
2022-10-17T13:35:59.533Z,100984.40
2022-10-17T13:38:34.190Z,100984.80
2022-10-17T13:41:34.373Z,100986.40
2022-10-17T13:44:08.422Z,100989.40
2022-10-17T13:46:40.164Z,100986.20
2022-10-17T13:49:37.476Z,100987.40
2022-10-17T13:52:24.347Z,100992.40
2022-10-17T13:54:54.668Z,100987.80
2022-10-17T13:57:32.179Z,100990.60
2022-10-17T14:00:16.006Z,100989.20
2022-10-17T14:02:44.680Z,100982.80
2022-10-17T14:05:20.399Z,100983.20
2022-10-17T14:08:14.487Z,100979.40
2022-10-17T14:10:45.617Z,100970.00
2022-10-17T14:13:28.280Z,100968.00
2022-10-17T14:16:03.036Z,100973.00
2022-10-17T14:18:36.861Z,100973.20
2022-10-17T14:21:36.831Z,100974.40
2022-10-17T14:24:16.579Z,100976.00
2022-10-17T14:27:00.936Z,100972.60
2022-10-17T14:29:32.227Z,100976.00
2022-10-17T14:32:15.417Z,100979.00
2022-10-17T14:34:45.447Z,100974.40
2022-10-17T14:37:51.081Z,100980.60
2022-10-17T14:40:26.415Z,100975.00
2022-10-17T14:42:58.374Z,100977.60
2022-10-17T14:45:37.443Z,100975.60
2022-10-17T14:48:24.726Z,100982.20
2022-10-17T14:51:18.676Z,100980.40
2022-10-17T14:54:27.180Z,100975.40
2022-10-17T14:56:56.388Z,100971.20
2022-10-17T14:59:52.148Z,100975.60
2022-10-17T15:02:15.419Z,100974.60
2022-10-17T15:04:44.099Z,100976.40
2022-10-17T15:07:17.887Z,100975.00
2022-10-17T15:09:51.204Z,100967.60
2022-10-17T15:12:25.405Z,100971.20
2022-10-17T15:14:55.016Z,100971.80
2022-10-17T15:17:31.938Z,100971.00
2022-10-17T15:20:00.937Z,100967.00
2022-10-17T15:22:31.704Z,100970.20
2022-10-17T15:25:00.510Z,100969.20
2022-10-17T15:27:31.982Z,100959.40
2022-10-17T15:30:00.860Z,100956.80
2022-10-17T15:32:29.439Z,100959.00
2022-10-17T15:34:57.919Z,100960.20
2022-10-17T15:37:34.112Z,100960.20
2022-10-17T15:40:02.787Z,100958.60
2022-10-17T15:42:32.095Z,100965.40
2022-10-17T15:45:00.792Z,100968.60
2022-10-17T15:47:36.197Z,100972.00
2022-10-17T15:50:09.185Z,100972.00
2022-10-17T15:52:38.180Z,100971.00
2022-10-17T15:55:08.182Z,100969.40
2022-10-17T15:57:43.339Z,100974.20
2022-10-17T16:00:24.437Z,100974.60
2022-10-17T16:02:52.999Z,100977.20
2022-10-17T16:05:26.876Z,100979.60
2022-10-17T16:07:57.957Z,100979.60
2022-10-17T16:10:27.370Z,100980.60
2022-10-17T16:12:56.760Z,100976.80
2022-10-17T16:15:28.340Z,100978.20
2022-10-17T16:18:01.641Z,100982.80
2022-10-17T16:20:33.057Z,100985.60
2022-10-17T16:23:03.481Z,100986.20
2022-10-17T16:25:33.088Z,100982.40
2022-10-17T16:28:02.734Z,100986.40
2022-10-17T16:30:33.149Z,100984.60
2022-10-17T16:33:01.708Z,100985.60
2022-10-17T16:35:34.792Z,100981.00
2022-10-17T16:38:08.951Z,100978.60
2022-10-17T16:40:40.619Z,100974.40
2022-10-17T16:43:15.302Z,100980.40
2022-10-17T16:45:43.881Z,100981.80
2022-10-17T16:48:12.778Z,100986.60
2022-10-17T16:50:41.562Z,100987.40
2022-10-17T16:53:10.460Z,100987.80
2022-10-17T16:55:39.147Z,100987.40
2022-10-17T16:58:07.816Z,100989.80
2022-10-17T17:00:39.331Z,100992.80
2022-10-17T17:03:07.963Z,100987.40
2022-10-17T17:05:36.538Z,100992.60
2022-10-17T17:08:09.092Z,100987.20
2022-10-17T17:10:50.624Z,100984.80
2022-10-17T17:13:20.035Z,100984.80
2022-10-17T17:15:50.640Z,100983.20
2022-10-17T17:18:22.897Z,100982.60
2022-10-17T17:20:51.798Z,100982.20
2022-10-17T17:23:20.997Z,100979.40
2022-10-17T17:25:51.220Z,100977.00
2022-10-17T17:28:20.018Z,100980.40
2022-10-17T17:30:49.271Z,100989.40
2022-10-17T17:33:19.397Z,100988.40
2022-10-17T17:35:48.840Z,100992.80
2022-10-17T17:38:18.302Z,100993.60
2022-10-17T17:40:50.770Z,101000.40
2022-10-17T17:43:21.526Z,101000.40
2022-10-17T17:45:50.642Z,101004.60
2022-10-17T17:48:21.734Z,101004.20
2022-10-17T17:50:52.639Z,101004.40
2022-10-17T17:53:22.440Z,101004.00
2022-10-17T17:56:07.570Z,101006.60
2022-10-17T17:58:37.454Z,101000.20
2022-10-17T18:01:14.387Z,101008.40
2022-10-17T18:03:44.118Z,101004.40
2022-10-17T18:06:13.019Z,101004.80
2022-10-17T18:08:46.577Z,101008.00
2022-10-17T18:11:17.175Z,101012.00
2022-10-17T18:13:48.586Z,101012.00
2022-10-17T18:16:17.479Z,101018.00
2022-10-17T18:18:46.281Z,101022.80
2022-10-17T18:21:15.479Z,101025.20
2022-10-17T18:23:47.187Z,101024.60
2022-10-17T18:26:17.239Z,101025.20
2022-10-17T18:28:46.137Z,101024.40
2022-10-17T18:31:36.301Z,101016.00
2022-10-17T18:34:06.480Z,101025.80
2022-10-17T18:36:37.559Z,101026.40
2022-10-17T18:39:06.478Z,101023.00
2022-10-17T18:41:35.740Z,101024.40
2022-10-17T18:44:05.080Z,101022.20
2022-10-17T18:46:41.224Z,101027.20
2022-10-17T18:49:14.219Z,101031.40
2022-10-17T18:51:43.441Z,101029.00
2022-10-17T18:54:17.419Z,101026.60
2022-10-17T18:56:47.270Z,101025.00
2022-10-17T18:59:16.457Z,101022.20
2022-10-17T19:01:45.465Z,101022.00
2022-10-17T19:04:15.359Z,101018.80
2022-10-17T19:06:45.077Z,101022.60
2022-10-17T19:09:15.928Z,101029.80
2022-10-17T19:11:44.898Z,101036.80
2022-10-17T19:14:14.351Z,101037.60
2022-10-17T19:16:49.372Z,101037.40
2022-10-17T19:19:24.560Z,101037.40
2022-10-17T19:21:54.188Z,101036.60
2022-10-17T19:24:28.719Z,101032.60
2022-10-17T19:27:02.927Z,101023.60
2022-10-17T19:29:32.397Z,101004.60
2022-10-17T19:32:02.088Z,101008.80
2022-10-17T19:34:30.739Z,101018.40
2022-10-17T19:36:59.726Z,101014.40
2022-10-17T19:39:28.719Z,101014.60
2022-10-17T19:41:57.402Z,101020.40
2022-10-17T19:44:26.301Z,101024.60
2022-10-17T19:46:54.917Z,101029.20
2022-10-17T19:49:23.979Z,101019.40
2022-10-17T19:51:52.925Z,101018.00
2022-10-17T19:54:21.668Z,101017.80
2022-10-17T19:56:50.481Z,101016.00
2022-10-17T19:59:20.199Z,101014.20
2022-10-17T20:01:48.770Z,101002.00
2022-10-17T20:04:17.640Z,101003.00
2022-10-17T20:06:46.406Z,101002.60
2022-10-17T20:09:17.074Z,101004.40
2022-10-17T20:11:46.563Z,101006.80
2022-10-17T20:14:15.228Z,101014.40
2022-10-17T20:16:45.238Z,101013.40
2022-10-17T20:19:14.472Z,101026.20
2022-10-17T20:21:44.416Z,101026.00
2022-10-17T20:24:16.288Z,101029.00
2022-10-17T20:26:46.281Z,101035.60
2022-10-17T20:29:21.481Z,101033.80
2022-10-17T20:31:51.198Z,101030.60
2022-10-17T20:34:20.507Z,101029.00
2022-10-17T20:36:50.100Z,101029.80
2022-10-17T20:39:21.277Z,101032.20
2022-10-17T20:41:49.939Z,101036.00
2022-10-17T20:44:18.518Z,101039.80
2022-10-17T20:47:00.581Z,101034.20
2022-10-17T20:49:33.000Z,101037.00
2022-10-17T20:52:02.252Z,101040.60
2022-10-17T20:54:31.017Z,101032.80
2022-10-17T20:57:02.516Z,101038.80
2022-10-17T20:59:36.327Z,101039.40
2022-10-17T21:02:06.558Z,101038.60
2022-10-17T21:04:50.468Z,101033.60
2022-10-17T21:07:19.297Z,101037.20
2022-10-17T21:09:47.979Z,101031.80
2022-10-17T21:12:25.929Z,101036.40
2022-10-17T21:15:06.190Z,101033.00
2022-10-17T21:17:35.041Z,101032.40
2022-10-17T21:20:04.235Z,101024.80
2022-10-17T21:22:35.278Z,101012.20
2022-10-17T21:25:04.159Z,101016.40
2022-10-17T21:27:32.647Z,101018.80
2022-10-17T21:30:01.428Z,101023.40
2022-10-17T21:32:40.364Z,101029.20
2022-10-17T21:35:18.567Z,101028.20
2022-10-17T21:37:46.948Z,101029.80
2022-10-17T21:40:15.627Z,101032.60
2022-10-17T21:42:44.120Z,101035.00
2022-10-17T21:45:15.742Z,101031.40
2022-10-17T21:48:11.602Z,101029.60
2022-10-17T21:50:37.217Z,101031.20
2022-10-17T21:53:05.898Z,101031.60
2022-10-17T21:55:37.883Z,101030.60
2022-10-17T21:58:06.442Z,101030.20
2022-10-17T22:01:07.803Z,101026.60
2022-10-17T22:03:46.678Z,101030.80
2022-10-17T22:06:44.009Z,101034.20
2022-10-17T22:09:43.418Z,101035.60
2022-10-17T22:12:47.379Z,101035.40
2022-10-17T22:15:47.046Z,101029.80
2022-10-17T22:18:22.334Z,101032.00
2022-10-17T22:21:12.108Z,101027.00
2022-10-17T22:24:00.312Z,101021.20
2022-10-17T22:26:39.824Z,101027.80
2022-10-17T22:29:15.650Z,101026.80
2022-10-17T22:31:47.310Z,101022.60
2022-10-17T22:34:19.642Z,101026.20
2022-10-17T22:36:52.117Z,101030.60
2022-10-17T22:39:23.026Z,101032.00
2022-10-17T22:41:55.446Z,101028.80
2022-10-17T22:44:26.013Z,101030.20
2022-10-17T22:46:58.911Z,101029.40
2022-10-17T23:14:26.171Z,101031.60
2022-10-17T23:24:28.571Z,101024.60
2022-10-17T23:27:07.320Z,101019.80
2022-10-17T23:29:43.329Z,101012.60
2022-10-17T23:42:38.018Z,101013.60
